createdAt,value
2022-08-02T00:02:52.655Z,97743.47
2022-08-02T00:06:56.157Z,97752.66
2022-08-02T00:10:59.463Z,97745.75
2022-08-02T00:15:05.473Z,97743.13
2022-08-02T00:19:08.471Z,97742.50
2022-08-02T00:23:12.081Z,97735.59
2022-08-02T00:27:15.396Z,97731.13
2022-08-02T00:31:20.337Z,97715.59
2022-08-02T00:35:24.096Z,97721.03
2022-08-02T00:39:33.835Z,97719.09
2022-08-02T00:43:39.155Z,97723.53
2022-08-02T00:47:44.223Z,97721.22
2022-08-02T00:51:47.387Z,97720.66
2022-08-02T00:55:51.064Z,97726.38
2022-08-02T00:59:55.705Z,97729.72
2022-08-02T01:04:00.683Z,97728.53
2022-08-02T01:08:04.273Z,97728.59
2022-08-02T01:12:08.869Z,97724.56
2022-08-02T01:16:17.978Z,97718.44
2022-08-02T01:20:48.456Z,97726.06
2022-08-02T01:25:09.490Z,97740.31
2022-08-02T01:29:20.311Z,97745.25
2022-08-02T01:33:26.865Z,97749.94
2022-08-02T01:37:34.482Z,97753.84
2022-08-02T01:41:38.786Z,97760.19
2022-08-02T01:45:45.835Z,97760.97
2022-08-02T01:49:53.594Z,97762.84
2022-08-02T01:53:57.600Z,97758.56
2022-08-02T01:58:04.911Z,97753.25
2022-08-02T02:02:12.862Z,97761.19
2022-08-02T02:06:18.417Z,97765.50
2022-08-02T02:10:27.341Z,97768.69
2022-08-02T02:14:32.293Z,97768.03
2022-08-02T02:18:42.613Z,97774.28
2022-08-02T02:22:46.043Z,97777.09
2022-08-02T02:26:53.618Z,97784.38
2022-08-02T02:31:02.705Z,97781.06
2022-08-02T02:35:10.369Z,97786.28
2022-08-02T02:39:16.257Z,97795.63
2022-08-02T02:43:20.203Z,97796.78
2022-08-02T02:47:40.889Z,97801.41
2022-08-02T02:51:47.761Z,97805.50
2022-08-02T02:56:02.347Z,97802.03
2022-08-02T03:00:08.513Z,97795.91
2022-08-02T03:04:13.591Z,97798.31
2022-08-02T03:08:18.787Z,97795.91
2022-08-02T03:12:26.872Z,97792.25
2022-08-02T03:16:32.258Z,97796.50
2022-08-02T03:20:36.440Z,97809.34
2022-08-02T03:24:41.021Z,97815.81
2022-08-02T03:28:45.491Z,97822.72
2022-08-02T03:32:51.135Z,97827.56
2022-08-02T03:36:57.849Z,97823.09
2022-08-02T03:41:05.147Z,97824.13
2022-08-02T03:45:10.501Z,97837.00
2022-08-02T03:49:16.975Z,97838.69
2022-08-02T03:53:20.863Z,97844.63
2022-08-02T03:57:25.841Z,97850.59
2022-08-02T04:01:29.567Z,97845.38
2022-08-02T04:05:33.153Z,97851.13
2022-08-02T04:09:36.925Z,97855.25
2022-08-02T04:13:42.004Z,97862.00
2022-08-02T04:17:51.644Z,97860.59
2022-08-02T04:21:56.135Z,97858.59
2022-08-02T04:26:02.360Z,97866.56
2022-08-02T04:30:11.230Z,97865.75
2022-08-02T04:34:15.762Z,97874.94
2022-08-02T04:38:19.506Z,97804.81
2022-08-02T04:42:23.909Z,97823.47
2022-08-02T04:46:28.708Z,97882.09
2022-08-02T04:50:32.528Z,97882.31
2022-08-02T04:54:35.657Z,97885.38
2022-08-02T04:58:40.729Z,97885.38
2022-08-02T05:02:45.855Z,97879.88
2022-08-02T05:06:48.826Z,97885.16
2022-08-02T05:10:52.278Z,97881.44
2022-08-02T05:14:55.678Z,97897.16
2022-08-02T05:19:01.067Z,97892.63
2022-08-02T05:23:04.743Z,97889.25
2022-08-02T05:27:21.232Z,97904.44
2022-08-02T05:31:25.320Z,97903.78
2022-08-02T05:35:30.761Z,97909.28
2022-08-02T05:39:33.778Z,97907.25
2022-08-02T05:43:38.792Z,97910.25
2022-08-02T05:47:42.390Z,97913.28
2022-08-02T05:51:54.137Z,97917.47
2022-08-02T05:56:08.389Z,97923.06
2022-08-02T06:00:14.966Z,97925.19
2022-08-02T06:04:26.628Z,97930.16
2022-08-02T06:08:39.591Z,97921.91
2022-08-02T06:12:52.742Z,97942.41
2022-08-02T06:16:58.388Z,97930.66
2022-08-02T06:22:35.683Z,97944.53
2022-08-02T06:25:50.595Z,97952.31
2022-08-02T06:29:56.442Z,97955.47
2022-08-02T06:33:59.963Z,97951.22
2022-08-02T06:38:05.212Z,97954.25
2022-08-02T06:42:28.030Z,97950.72
2022-08-02T06:46:38.035Z,97955.81
2022-08-02T06:50:54.822Z,97951.63
2022-08-02T06:54:59.516Z,97946.16
2022-08-02T06:59:06.219Z,97949.91
2022-08-02T07:03:10.135Z,97952.16
2022-08-02T07:07:13.473Z,97954.63
2022-08-02T07:11:16.840Z,97957.16
2022-08-02T07:15:21.815Z,97951.84
2022-08-02T07:19:31.903Z,97942.34
2022-08-02T07:23:41.443Z,97943.66
2022-08-02T07:27:44.570Z,97942.03
2022-08-02T07:31:49.648Z,97941.25
2022-08-02T07:35:53.154Z,97944.94
2022-08-02T07:40:00.201Z,97941.41
2022-08-02T07:44:03.817Z,97936.28
2022-08-02T07:48:08.710Z,97927.41
2022-08-02T07:52:12.838Z,97934.25
2022-08-02T07:56:16.967Z,97944.41
2022-08-02T08:00:20.921Z,97928.88
2022-08-02T08:04:25.794Z,97940.09
2022-08-02T08:08:29.081Z,97936.16
2022-08-02T08:12:32.671Z,97937.75
2022-08-02T08:16:36.480Z,97929.31
2022-08-02T08:20:41.934Z,97923.66
2022-08-02T08:24:45.925Z,97932.84
2022-08-02T08:28:49.051Z,97935.34
2022-08-02T08:32:52.642Z,97929.25
2022-08-02T08:36:57.821Z,97928.97
2022-08-02T08:41:01.489Z,97936.06
2022-08-02T08:45:06.321Z,97948.75
2022-08-02T08:49:19.095Z,97940.00
2022-08-02T08:53:36.463Z,97943.22
2022-08-02T08:57:44.022Z,97940.09
2022-08-02T09:01:50.059Z,97944.97
2022-08-02T09:05:54.020Z,97940.72
2022-08-02T09:09:59.073Z,97938.56
2022-08-02T09:14:03.777Z,97943.31
2022-08-02T09:18:09.053Z,97936.44
2022-08-02T09:22:15.703Z,97943.94
2022-08-02T09:26:22.827Z,97954.69
2022-08-02T09:30:28.265Z,97939.66
2022-08-02T09:34:45.749Z,97947.63
2022-08-02T09:38:57.297Z,97948.28
2022-08-02T09:43:02.365Z,97942.63
2022-08-02T09:47:16.738Z,97947.50
2022-08-02T09:51:22.321Z,97940.31
2022-08-02T09:55:26.821Z,97937.94
2022-08-02T09:59:34.180Z,97935.53
2022-08-02T10:03:37.485Z,97932.50
2022-08-02T10:07:41.360Z,97933.63
2022-08-02T10:11:46.853Z,97934.69
2022-08-02T10:15:53.154Z,97920.66
2022-08-02T10:20:02.938Z,97912.78
2022-08-02T10:24:11.396Z,97919.44
2022-08-02T10:28:19.367Z,97912.84
2022-08-02T10:32:28.794Z,97916.97
2022-08-02T10:36:33.800Z,97900.13
2022-08-02T10:40:48.621Z,97904.53
2022-08-02T10:45:10.226Z,97900.69
2022-08-02T10:53:39.945Z,97883.59
2022-08-02T10:57:48.697Z,97883.06
2022-08-02T11:02:01.628Z,97874.22
2022-08-02T11:06:08.112Z,97878.00
2022-08-02T11:10:34.334Z,97878.38
2022-08-02T11:14:39.623Z,97869.53
2022-08-02T11:19:07.376Z,97860.56
2022-08-02T11:23:44.437Z,97860.81
2022-08-02T11:27:49.198Z,97865.06
2022-08-02T11:31:52.772Z,97860.88
2022-08-02T11:36:03.571Z,97858.16
2022-08-02T11:40:19.516Z,97855.84
2022-08-02T11:44:24.340Z,97859.59
2022-08-02T11:48:38.997Z,97861.88
2022-08-02T11:52:42.871Z,97853.44
2022-08-02T11:56:48.067Z,97845.63
2022-08-02T12:00:51.196Z,97846.31
2022-08-02T12:04:57.909Z,97843.44
2022-08-02T12:09:06.112Z,97846.94
2022-08-02T12:13:23.155Z,97843.59
2022-08-02T12:17:47.566Z,97838.31
2022-08-02T12:22:08.070Z,97838.16
2022-08-02T12:26:16.028Z,97834.81
2022-08-02T12:30:27.894Z,97835.44
2022-08-02T12:34:32.953Z,97834.00
2022-08-02T12:38:36.604Z,97831.63
2022-08-02T12:42:48.344Z,97830.66
2022-08-02T12:47:02.201Z,97827.50
2022-08-02T12:51:23.664Z,97827.19
2022-08-02T12:56:01.999Z,97823.63
2022-08-02T12:59:53.898Z,97821.88
2022-08-02T13:04:10.470Z,97818.50
2022-08-02T13:08:17.338Z,97815.94
2022-08-02T13:12:20.953Z,97816.81
2022-08-02T13:16:30.657Z,97814.91
2022-08-02T13:20:39.101Z,97796.56
2022-08-02T13:24:56.048Z,97801.34
2022-08-02T13:29:00.537Z,97796.88
2022-08-02T13:33:03.829Z,97802.91
2022-08-02T13:37:08.973Z,97784.91
2022-08-02T13:41:14.091Z,97776.00
2022-08-02T13:45:17.631Z,97769.03
2022-08-02T13:49:22.031Z,97768.41
2022-08-02T13:53:46.349Z,97769.53
2022-08-02T13:57:51.426Z,97773.00
2022-08-02T14:01:59.177Z,97763.16
2022-08-02T14:06:02.866Z,97759.81
2022-08-02T14:10:09.802Z,97766.50
2022-08-02T14:14:16.287Z,97765.03
2022-08-02T14:18:22.388Z,97761.38
2022-08-02T14:22:29.254Z,97762.34
2022-08-02T14:26:34.178Z,97764.72
2022-08-02T14:30:37.538Z,97761.72
2022-08-02T14:34:41.011Z,97763.28
2022-08-02T14:38:44.458Z,97769.69
2022-08-02T14:42:49.468Z,97760.75
2022-08-02T14:46:52.896Z,97755.66
2022-08-02T14:50:56.542Z,97751.81
2022-08-02T14:55:00.001Z,97744.03
2022-08-02T14:59:04.973Z,97743.22
2022-08-02T15:03:11.061Z,97743.53
2022-08-02T15:07:15.852Z,97737.31
2022-08-02T15:11:19.430Z,97729.97
2022-08-02T15:15:26.759Z,97723.59
2022-08-02T15:19:55.999Z,97720.25
2022-08-02T15:23:53.760Z,97717.25
2022-08-02T15:27:57.411Z,97726.63
2022-08-02T15:32:02.440Z,97725.81
2022-08-02T15:36:06.614Z,97724.06
2022-08-02T15:40:11.474Z,97725.03
2022-08-02T15:44:15.051Z,97727.56
2022-08-02T15:48:20.820Z,97732.97
2022-08-02T15:52:24.456Z,97732.28
2022-08-02T15:56:28.109Z,97717.94
2022-08-02T16:00:31.329Z,97728.53
2022-08-02T16:13:52.755Z,97728.97
2022-08-02T16:17:57.637Z,97730.22
2022-08-02T16:22:02.415Z,97725.22
2022-08-02T16:26:05.439Z,97724.69
2022-08-02T16:30:10.653Z,97729.38
2022-08-02T16:34:14.119Z,97725.97
2022-08-02T16:38:19.161Z,97723.06
2022-08-02T16:42:25.532Z,97721.50
2022-08-02T16:46:28.845Z,97718.22
2022-08-02T16:50:33.528Z,97716.69
2022-08-02T16:54:38.581Z,97714.81
2022-08-02T16:58:45.018Z,97717.19
2022-08-02T17:02:50.915Z,97716.53
2022-08-02T17:06:54.758Z,97712.13
2022-08-02T17:11:04.142Z,97721.81
2022-08-02T17:16:01.122Z,97724.38
2022-08-02T17:19:35.257Z,97724.22
2022-08-02T17:24:04.047Z,97723.47
2022-08-02T17:28:06.992Z,97718.84
2022-08-02T17:32:13.213Z,97724.69
2022-08-02T17:36:18.307Z,97736.03
2022-08-02T17:40:23.865Z,97730.44
2022-08-02T17:44:37.451Z,97725.56
2022-08-02T17:48:59.246Z,97729.03
2022-08-02T17:53:03.084Z,97744.25
2022-08-02T17:57:07.243Z,97738.44
2022-08-02T18:01:23.536Z,97744.97
2022-08-02T18:05:41.564Z,97749.59
2022-08-02T18:09:51.125Z,97741.00
2022-08-02T18:13:58.742Z,97739.13
2022-08-02T18:18:03.284Z,97738.84
2022-08-02T18:22:06.828Z,97741.75
2022-08-02T18:26:12.453Z,97736.28
2022-08-02T18:30:21.645Z,97743.41
2022-08-02T18:34:36.086Z,97746.25
2022-08-02T18:38:45.653Z,97748.44
2022-08-02T18:42:48.956Z,97754.91
2022-08-02T18:46:52.419Z,97746.13
2022-08-02T18:50:57.132Z,97746.44
2022-08-02T18:55:01.014Z,97752.81
2022-08-02T18:59:04.675Z,97754.47
2022-08-02T19:03:10.981Z,97762.78
2022-08-02T19:07:18.704Z,97762.84
2022-08-02T19:11:26.370Z,97761.81
2022-08-02T19:15:39.175Z,97768.56
2022-08-02T19:19:43.192Z,97764.59
2022-08-02T19:23:54.361Z,97767.59
2022-08-02T19:27:58.650Z,97766.06
2022-08-02T19:32:03.097Z,97773.06
2022-08-02T19:36:06.980Z,97773.16
2022-08-02T19:40:16.100Z,97769.25
2022-08-02T19:44:29.271Z,97769.88
2022-08-02T19:48:33.533Z,97766.81
2022-08-02T19:52:37.064Z,97776.00
2022-08-02T19:56:41.722Z,97771.28
2022-08-02T20:00:45.114Z,97775.34
2022-08-02T20:04:50.391Z,97775.47
2022-08-02T20:08:58.974Z,97771.09
2022-08-02T20:13:05.406Z,97764.09
2022-08-02T20:17:12.154Z,97765.59
2022-08-02T20:21:34.156Z,97767.13
2022-08-02T20:25:38.406Z,97769.53
2022-08-02T20:29:50.226Z,97770.81
2022-08-02T20:33:55.408Z,97763.78
2022-08-02T20:38:04.762Z,97773.03
2022-08-02T20:42:22.681Z,97759.09
2022-08-02T20:46:29.104Z,97764.75
2022-08-02T20:50:53.237Z,97760.03
2022-08-02T20:54:56.621Z,97766.72
2022-08-02T20:59:03.973Z,97765.44
2022-08-02T21:03:21.345Z,97768.00
2022-08-02T21:07:25.816Z,97773.19
2022-08-02T21:11:33.669Z,97778.84
2022-08-02T21:15:37.893Z,97786.13
2022-08-02T21:19:45.394Z,97779.53
2022-08-02T21:23:54.849Z,97768.13
2022-08-02T21:27:58.821Z,97776.41
2022-08-02T21:32:02.270Z,97774.53
2022-08-02T21:36:07.370Z,97772.66
2022-08-02T21:40:12.256Z,97777.72
2022-08-02T21:44:16.761Z,97782.75
2022-08-02T21:48:20.556Z,97782.25
2022-08-02T21:52:26.155Z,97782.56
2022-08-02T21:56:29.722Z,97777.00
2022-08-02T22:00:32.881Z,97778.31
2022-08-02T22:04:36.984Z,97780.44
2022-08-02T22:08:41.382Z,97790.31
2022-08-02T22:12:45.578Z,97798.13
2022-08-02T22:16:51.186Z,97797.19
2022-08-02T22:20:56.230Z,97793.00
2022-08-02T22:25:01.811Z,97800.22
2022-08-02T22:29:07.446Z,97796.00
2022-08-02T22:33:33.045Z,97792.63
2022-08-02T22:38:15.211Z,97793.94
2022-08-02T22:42:05.843Z,97797.88
2022-08-02T22:46:15.635Z,97799.19
2022-08-02T22:50:19.918Z,97798.44
2022-08-02T22:54:26.741Z,97794.78
2022-08-02T22:58:31.632Z,97794.22
2022-08-02T23:02:34.726Z,97797.91
2022-08-02T23:06:38.243Z,97800.53
2022-08-02T23:10:43.295Z,97796.25
2022-08-02T23:14:47.850Z,97797.28
2022-08-02T23:19:08.750Z,97794.03
2022-08-02T23:23:12.027Z,97797.72
2022-08-02T23:27:15.610Z,97807.13
2022-08-02T23:31:37.476Z,97800.66
2022-08-02T23:35:42.105Z,97797.47
2022-08-02T23:39:45.207Z,97800.16
2022-08-02T23:44:11.228Z,97796.75
2022-08-02T23:48:13.411Z,97794.97
2022-08-02T23:52:17.260Z,97799.06
2022-08-02T23:56:20.461Z,97788.34
